createdAt,value
2017-12-19T00:00:20.925Z,22.92
2017-12-19T00:02:50.713Z,23.85
2017-12-19T00:05:19.501Z,22.17
2017-12-19T00:07:50.261Z,23.23
2017-12-19T00:10:19.185Z,24.77
2017-12-19T00:12:47.177Z,24.27
2017-12-19T00:15:17.233Z,22.73
2017-12-19T00:17:46.985Z,22.05
2017-12-19T00:20:18.877Z,23.55
2017-12-19T00:22:56.321Z,22.95
2017-12-19T00:25:24.345Z,21.15
2017-12-19T00:27:53.125Z,20.33
2017-12-19T00:30:23.860Z,22.75
2017-12-19T00:32:59.153Z,19.65
2017-12-19T00:35:31.145Z,21.37
2017-12-19T00:38:02.988Z,22.23
2017-12-19T00:40:38.354Z,22.80
2017-12-19T00:43:07.332Z,22.25
2017-12-19T00:45:35.357Z,24.20
2017-12-19T00:48:09.838Z,23.70
2017-12-19T00:50:37.861Z,22.55
2017-12-19T00:53:06.900Z,23.67
2017-12-19T00:55:40.973Z,23.08
2017-12-19T00:58:20.608Z,23.48
2017-12-19T01:00:51.576Z,21.45
2017-12-19T01:03:19.629Z,22.48
2017-12-19T01:05:50.925Z,24.70
2017-12-19T01:08:22.548Z,25.00
2017-12-19T01:10:50.589Z,22.98
2017-12-19T01:13:18.621Z,24.40
2017-12-19T01:16:00.108Z,24.10
2017-12-19T01:18:42.985Z,22.77
2017-12-19T01:21:14.345Z,22.92
2017-12-19T01:23:44.401Z,22.45
2017-12-19T01:26:14.385Z,23.67
2017-12-19T01:28:44.441Z,23.25
2017-12-19T01:31:13.373Z,22.10
2017-12-19T01:33:46.676Z,22.40
2017-12-19T01:36:18.235Z,22.77
2017-12-19T01:38:50.176Z,22.30
2017-12-19T01:41:23.669Z,22.83
2017-12-19T01:43:52.689Z,21.05
2017-12-19T01:46:26.980Z,24.50
2017-12-19T01:48:55.772Z,21.87
2017-12-19T01:51:23.780Z,22.10
2017-12-19T01:53:53.547Z,24.90
2017-12-19T01:56:27.960Z,23.42
2017-12-19T01:58:59.832Z,24.35
2017-12-19T02:01:31.512Z,23.98
2017-12-19T02:04:02.328Z,24.45
2017-12-19T02:06:32.400Z,24.20
2017-12-19T02:09:04.824Z,25.15
2017-12-19T02:11:32.860Z,26.67
2017-12-19T02:14:00.884Z,24.00
2017-12-19T02:16:34.159Z,23.70
2017-12-19T02:19:04.148Z,24.70
2017-12-19T02:21:33.148Z,26.52
2017-12-19T02:24:02.168Z,23.77
2017-12-19T02:26:30.184Z,23.70
2017-12-19T02:29:01.152Z,23.98
2017-12-19T02:31:29.945Z,24.77
2017-12-19T02:33:59.956Z,24.67
2017-12-19T02:36:33.064Z,24.70
2017-12-19T02:39:12.060Z,23.85
2017-12-19T02:41:40.096Z,24.52
2017-12-19T02:44:22.014Z,22.52
2017-12-19T02:46:51.976Z,22.30
2017-12-19T02:49:20.947Z,22.73
2017-12-19T02:51:59.639Z,25.52
2017-12-19T02:54:34.356Z,24.35
2017-12-19T02:57:04.325Z,25.35
2017-12-19T02:59:36.320Z,23.67
2017-12-19T03:02:12.608Z,25.37
2017-12-19T03:04:49.268Z,24.27
2017-12-19T03:07:21.279Z,26.00
2017-12-19T03:09:53.120Z,25.98
2017-12-19T03:12:22.132Z,24.45
2017-12-19T03:14:53.467Z,25.90
2017-12-19T03:17:21.484Z,25.37
2017-12-19T03:20:00.640Z,25.80
2017-12-19T03:22:35.359Z,23.80
2017-12-19T03:25:10.300Z,25.45
2017-12-19T03:27:40.227Z,23.90
2017-12-19T03:30:15.760Z,24.92
2017-12-19T03:32:49.587Z,25.45
2017-12-19T03:35:21.372Z,26.67
2017-12-19T03:37:57.777Z,24.90
2017-12-19T03:40:26.740Z,24.73
2017-12-19T03:43:02.212Z,24.67
2017-12-19T03:45:30.239Z,26.15
2017-12-19T03:48:05.656Z,25.98
2017-12-19T03:50:49.247Z,26.50
2017-12-19T03:53:22.379Z,24.55
2017-12-19T03:56:00.899Z,26.23
2017-12-19T03:58:31.932Z,27.33
2017-12-19T04:01:07.487Z,25.15
2017-12-19T04:03:36.492Z,24.27
2017-12-19T04:06:06.507Z,25.42
2017-12-19T04:08:34.531Z,26.75
2017-12-19T04:11:19.375Z,25.58
2017-12-19T04:13:59.344Z,24.23
2017-12-19T04:16:37.163Z,22.58
2017-12-19T04:19:19.615Z,25.20
2017-12-19T04:21:48.403Z,23.60
2017-12-19T04:24:21.358Z,24.37
2017-12-19T04:26:55.991Z,24.40
2017-12-19T04:29:24.011Z,25.25
2017-12-19T04:32:09.270Z,26.27
2017-12-19T04:34:38.207Z,26.67
2017-12-19T04:37:09.255Z,26.58
2017-12-19T04:39:49.683Z,23.77
2017-12-19T04:42:21.784Z,26.05
2017-12-19T04:44:54.431Z,23.58
2017-12-19T04:47:24.407Z,26.45
2017-12-19T04:49:55.107Z,26.65
2017-12-19T04:52:36.342Z,26.12
2017-12-19T04:55:11.183Z,25.25
2017-12-19T04:57:40.211Z,28.87
2017-12-19T05:00:08.267Z,27.30
2017-12-19T05:02:36.283Z,28.27
2017-12-19T05:05:08.330Z,27.55
2017-12-19T05:07:49.823Z,27.00
2017-12-19T05:10:18.615Z,26.75
2017-12-19T05:12:52.799Z,26.87
2017-12-19T05:15:20.818Z,24.85
2017-12-19T05:18:00.170Z,27.98
2017-12-19T05:20:29.209Z,27.48
2017-12-19T05:22:57.219Z,26.50
2017-12-19T05:25:27.175Z,26.73
2017-12-19T05:28:05.163Z,27.30
2017-12-19T05:30:42.970Z,25.15
2017-12-19T05:33:18.707Z,23.62
2017-12-19T05:35:46.720Z,25.70
2017-12-19T05:38:26.667Z,23.87
2017-12-19T05:40:58.403Z,27.00
2017-12-19T05:43:26.434Z,28.67
2017-12-19T05:46:06.691Z,27.85
2017-12-19T05:48:47.255Z,29.45
2017-12-19T05:51:17.203Z,27.48
2017-12-19T05:53:48.446Z,26.67
2017-12-19T05:56:20.110Z,26.52
2017-12-19T05:59:00.561Z,27.20
2017-12-19T06:01:33.750Z,25.95
2017-12-19T06:04:15.102Z,26.45
2017-12-19T06:06:44.031Z,25.80
2017-12-19T06:09:19.862Z,26.20
2017-12-19T06:11:51.018Z,26.75
2017-12-19T06:14:21.063Z,27.85
2017-12-19T06:16:54.427Z,25.90
2017-12-19T06:19:22.454Z,26.83
2017-12-19T06:22:04.439Z,25.85
2017-12-19T06:24:33.222Z,23.62
2017-12-19T06:27:05.562Z,27.77
2017-12-19T06:29:39.066Z,26.95
2017-12-19T06:32:09.066Z,27.13
2017-12-19T06:34:37.078Z,31.02
2017-12-19T06:37:09.554Z,27.37
2017-12-19T06:39:38.327Z,26.73
2017-12-19T06:42:10.259Z,29.20
2017-12-19T06:44:45.779Z,27.30
2017-12-19T06:47:19.352Z,28.02
2017-12-19T06:49:51.778Z,32.22
2017-12-19T06:52:25.378Z,27.37
2017-12-19T06:54:54.158Z,31.23
2017-12-19T06:57:23.158Z,29.50
2017-12-19T06:59:58.494Z,29.42
2017-12-19T07:02:32.386Z,32.53
2017-12-19T07:05:05.415Z,29.17
2017-12-19T07:07:34.386Z,28.75
2017-12-19T07:10:08.798Z,27.92
2017-12-19T07:12:41.986Z,30.40
2017-12-19T07:15:16.486Z,27.70
2017-12-19T07:17:50.010Z,27.60
2017-12-19T07:20:23.374Z,28.58
2017-12-19T07:22:51.389Z,27.62
2017-12-19T07:25:19.414Z,28.23
2017-12-19T07:27:47.450Z,27.00
2017-12-19T07:30:16.238Z,26.95
2017-12-19T07:32:46.954Z,23.83
2017-12-19T07:35:14.958Z,27.85
2017-12-19T07:37:44.926Z,24.87
2017-12-19T07:40:13.950Z,28.33
2017-12-19T07:42:44.646Z,26.08
2017-12-19T07:45:12.670Z,27.83
2017-12-19T07:47:40.701Z,27.50
2017-12-19T07:50:18.454Z,26.00
2017-12-19T07:52:46.491Z,26.55
2017-12-19T07:55:14.490Z,27.58
2017-12-19T07:58:00.346Z,26.48
2017-12-19T08:00:30.022Z,26.83
2017-12-19T08:02:59.018Z,25.98
2017-12-19T08:05:34.564Z,24.20
2017-12-19T08:08:03.350Z,25.73
2017-12-19T08:10:31.354Z,26.75
2017-12-19T08:13:00.146Z,26.50
2017-12-19T08:15:39.410Z,28.60
2017-12-19T08:18:10.522Z,27.70
2017-12-19T08:20:52.709Z,26.90
2017-12-19T08:23:21.506Z,25.88
2017-12-19T08:25:53.730Z,27.00
2017-12-19T08:28:22.525Z,26.10
2017-12-19T08:30:55.154Z,26.75
2017-12-19T08:33:23.188Z,28.65
2017-12-19T08:36:03.382Z,27.30
2017-12-19T08:38:31.393Z,26.05
2017-12-19T08:40:59.398Z,26.50
2017-12-19T08:43:28.174Z,28.48
2017-12-19T08:45:57.090Z,26.55
2017-12-19T08:48:27.966Z,26.10
2017-12-19T08:51:03.810Z,26.05
2017-12-19T08:53:39.514Z,28.05
2017-12-19T08:56:08.334Z,27.58
2017-12-19T08:58:42.341Z,28.33
2017-12-19T09:01:16.053Z,28.20
2017-12-19T09:03:50.877Z,27.30
2017-12-19T09:06:19.806Z,27.60
2017-12-19T09:08:54.285Z,26.60
2017-12-19T09:11:22.305Z,25.98
2017-12-19T09:13:53.933Z,26.27
2017-12-19T09:16:21.941Z,27.02
2017-12-19T09:18:51.625Z,28.50
2017-12-19T09:21:19.641Z,26.37
2017-12-19T09:23:48.433Z,24.98
2017-12-19T09:26:16.441Z,25.92
2017-12-19T09:28:48.309Z,27.70
2017-12-19T09:31:18.221Z,27.42
2017-12-19T09:33:49.693Z,25.12
2017-12-19T09:36:21.428Z,26.23
2017-12-19T09:38:49.453Z,26.05
2017-12-19T09:41:17.469Z,27.15
2017-12-19T09:43:45.473Z,24.83
2017-12-19T09:46:14.273Z,23.20
2017-12-19T09:48:43.037Z,24.48
2017-12-19T09:51:11.811Z,22.98
2017-12-19T09:53:39.836Z,25.60
2017-12-19T09:56:07.843Z,25.27
2017-12-19T09:58:35.853Z,24.15
2017-12-19T10:01:03.885Z,24.30
2017-12-19T10:03:35.325Z,25.70
2017-12-19T10:06:10.953Z,26.12
2017-12-19T10:08:40.885Z,24.12
2017-12-19T10:11:10.917Z,24.17
2017-12-19T10:13:38.925Z,24.15
2017-12-19T10:16:06.933Z,24.25
2017-12-19T10:18:47.061Z,25.37
2017-12-19T10:21:21.993Z,23.33
2017-12-19T10:23:54.113Z,27.00
2017-12-19T10:29:28.993Z,23.20
2017-12-19T10:31:57.005Z,24.65
2017-12-19T10:34:26.720Z,23.70
2017-12-19T10:36:55.717Z,25.10
2017-12-19T10:39:24.493Z,25.70
2017-12-19T10:41:53.169Z,25.45
2017-12-19T10:44:23.105Z,25.52
2017-12-19T10:47:02.088Z,23.25
2017-12-19T10:49:37.857Z,25.00
2017-12-19T10:52:07.785Z,24.98
2017-12-19T10:54:39.453Z,25.80
2017-12-19T10:57:21.676Z,24.70
2017-12-19T11:00:02.668Z,25.70
2017-12-19T11:02:30.696Z,25.85
2017-12-19T11:05:15.197Z,23.92
2017-12-19T11:07:43.209Z,26.77
2017-12-19T11:10:12.017Z,26.55
2017-12-19T11:12:41.004Z,24.23
2017-12-19T11:15:16.408Z,27.35
2017-12-19T11:17:44.428Z,24.10
2017-12-19T11:20:16.884Z,25.75
2017-12-19T11:22:44.913Z,23.70
2017-12-19T11:25:12.932Z,23.27
2017-12-19T11:27:55.668Z,23.60
2017-12-19T11:30:25.444Z,23.12
2017-12-19T11:32:54.424Z,25.15
2017-12-19T11:35:24.357Z,23.73
2017-12-19T11:38:06.580Z,22.60
2017-12-19T11:40:43.524Z,23.30
2017-12-19T11:43:14.772Z,22.17
2017-12-19T11:45:53.168Z,19.55
2017-12-19T11:48:23.108Z,20.48
2017-12-19T11:50:52.092Z,21.87
2017-12-19T11:53:34.456Z,21.85
2017-12-19T11:56:06.557Z,23.25
2017-12-19T11:58:38.236Z,23.45
2017-12-19T12:01:11.820Z,23.62
2017-12-19T12:03:39.844Z,21.55
2017-12-19T12:06:07.860Z,21.65
2017-12-19T12:08:41.648Z,21.80
2017-12-19T12:11:12.694Z,22.35
2017-12-19T12:13:45.390Z,20.45
2017-12-19T12:16:15.400Z,22.70
2017-12-19T12:18:53.587Z,21.50
2017-12-19T12:21:26.508Z,23.90
2017-12-19T12:23:55.507Z,23.42
2017-12-19T12:26:30.896Z,22.77
2017-12-19T12:28:58.912Z,24.45
2017-12-19T12:31:27.896Z,22.05
2017-12-19T12:33:56.668Z,22.83
2017-12-19T12:36:24.696Z,24.90
2017-12-19T12:38:52.704Z,23.87
2017-12-19T12:41:31.309Z,22.65
2017-12-19T12:44:05.104Z,22.27
2017-12-19T12:46:35.068Z,24.02
2017-12-19T12:49:05.061Z,33.67
2017-12-19T12:51:38.888Z,54.45
2017-12-19T12:54:13.265Z,24.27
2017-12-19T12:56:41.345Z,23.48
2017-12-19T12:59:11.278Z,49.50
2017-12-19T13:01:46.392Z,33.15
2017-12-19T13:04:16.318Z,35.90
2017-12-19T13:06:54.304Z,28.90
2017-12-19T13:09:26.288Z,36.22
2017-12-19T13:11:57.949Z,22.08
2017-12-19T13:14:25.967Z,21.55
2017-12-19T13:16:53.980Z,18.95
2017-12-19T13:19:27.768Z,21.55
2017-12-19T13:21:55.795Z,19.95
2017-12-19T13:24:24.567Z,19.55
2017-12-19T13:26:52.600Z,20.48
2017-12-19T13:29:22.536Z,21.12
2017-12-19T13:31:50.544Z,21.20
2017-12-19T13:34:26.336Z,20.62
2017-12-19T13:36:54.352Z,25.08
2017-12-19T13:39:23.132Z,23.35
2017-12-19T13:41:53.140Z,20.05
2017-12-19T13:44:24.580Z,21.85
2017-12-19T13:46:56.443Z,23.25
2017-12-19T13:49:24.460Z,23.25
2017-12-19T13:51:54.408Z,23.00
2017-12-19T13:54:24.416Z,22.15
2017-12-19T13:56:55.060Z,21.33
2017-12-19T13:59:29.871Z,23.42
2017-12-19T14:02:15.303Z,24.17
2017-12-19T14:04:54.583Z,22.65
2017-12-19T14:07:24.508Z,21.73
2017-12-19T14:09:52.515Z,22.80
2017-12-19T14:12:21.479Z,24.17
2017-12-19T14:15:08.963Z,23.00
2017-12-19T14:17:36.988Z,20.90
2017-12-19T14:20:05.006Z,20.77
2017-12-19T14:22:33.943Z,20.05
2017-12-19T14:25:14.559Z,19.60
2017-12-19T14:27:42.571Z,20.02
2017-12-19T14:30:14.535Z,19.83
2017-12-19T14:32:42.543Z,20.95
2017-12-19T14:35:11.336Z,21.92
2017-12-19T14:37:46.809Z,21.08
2017-12-19T14:40:14.827Z,22.67
2017-12-19T14:42:42.839Z,22.95
2017-12-19T14:45:12.850Z,23.27
2017-12-19T14:47:46.766Z,21.62
2017-12-19T14:50:15.703Z,21.75
2017-12-19T14:52:45.695Z,23.52
2017-12-19T14:55:15.736Z,22.70
2017-12-19T14:57:44.711Z,23.90
2017-12-19T15:00:12.731Z,22.45
2017-12-19T15:02:40.759Z,22.65
2017-12-19T15:05:08.826Z,23.77
2017-12-19T15:07:37.807Z,23.90
2017-12-19T15:10:10.619Z,25.85
2017-12-19T15:12:43.285Z,26.27
2017-12-19T15:15:17.707Z,24.05
2017-12-19T15:17:50.775Z,25.52
2017-12-19T15:20:23.579Z,27.30
2017-12-19T15:23:05.747Z,26.33
2017-12-19T15:25:40.675Z,28.05
2017-12-19T15:28:14.398Z,27.87
2017-12-19T15:31:01.471Z,27.08
2017-12-19T15:33:31.423Z,26.98
2017-12-19T15:35:59.431Z,25.77
2017-12-19T15:38:29.211Z,26.80
2017-12-19T15:41:04.119Z,23.85
2017-12-19T15:43:35.291Z,24.58
2017-12-19T15:46:14.579Z,26.23
2017-12-19T15:48:43.615Z,25.42
2017-12-19T15:51:15.359Z,27.17
2017-12-19T15:53:45.395Z,24.98
2017-12-19T15:56:14.363Z,26.12
2017-12-19T15:58:43.363Z,25.60
2017-12-19T16:01:15.761Z,26.60
2017-12-19T16:03:50.367Z,23.98
2017-12-19T16:06:21.623Z,27.73
2017-12-19T16:08:51.531Z,24.90
2017-12-19T16:11:27.663Z,26.58
2017-12-19T16:14:00.807Z,25.00
2017-12-19T16:16:29.607Z,26.80
2017-12-19T16:18:57.607Z,27.30
2017-12-19T16:21:25.830Z,27.20
2017-12-19T16:23:54.783Z,26.95
2017-12-19T16:26:24.790Z,32.22
2017-12-19T16:28:53.819Z,28.65
2017-12-19T16:31:23.818Z,28.17
2017-12-19T16:33:55.191Z,26.05
2017-12-19T16:36:28.043Z,26.37
2017-12-19T16:38:56.073Z,24.35
2017-12-19T16:41:24.078Z,26.62
2017-12-19T16:43:53.010Z,25.40
2017-12-19T16:46:21.791Z,27.13
2017-12-19T16:48:50.559Z,24.70
2017-12-19T16:51:18.571Z,24.85
2017-12-19T16:53:48.542Z,27.67
2017-12-19T16:56:16.546Z,28.80
2017-12-19T16:58:44.567Z,28.60
2017-12-19T17:01:12.589Z,28.20
2017-12-19T17:03:41.494Z,28.73
2017-12-19T17:06:09.495Z,28.42
2017-12-19T17:08:44.942Z,29.30
2017-12-19T17:11:14.638Z,29.02
2017-12-19T17:13:43.645Z,27.90
2017-12-19T17:16:12.630Z,27.70
2017-12-19T17:18:45.418Z,31.00
2017-12-19T17:21:14.633Z,31.12
2017-12-19T17:23:42.606Z,31.48
2017-12-19T17:26:14.970Z,30.70
2017-12-19T17:28:46.506Z,30.37
2017-12-19T17:31:14.505Z,34.38
2017-12-19T17:33:43.290Z,32.50
2017-12-19T17:36:12.067Z,30.98
2017-12-19T17:38:40.092Z,28.73
2017-12-19T17:41:13.322Z,31.12
2017-12-19T17:43:41.334Z,40.97
2017-12-19T17:46:09.358Z,36.55
2017-12-19T17:48:37.382Z,36.30
2017-12-19T17:51:05.406Z,33.38
2017-12-19T17:53:34.386Z,39.92
2017-12-19T17:56:02.426Z,35.60
2017-12-19T17:58:31.222Z,32.53
2017-12-19T18:01:00.133Z,33.13
2017-12-19T18:03:28.154Z,40.80
2017-12-19T18:05:57.094Z,38.65
2017-12-19T18:08:25.122Z,35.28
2017-12-19T18:10:57.634Z,32.53
2017-12-19T18:13:26.562Z,32.88
2017-12-19T18:15:55.366Z,32.30
2017-12-19T18:18:23.423Z,32.85
2017-12-19T18:20:53.101Z,34.20
2017-12-19T18:23:21.142Z,35.90
2017-12-19T18:25:49.182Z,33.08
2017-12-19T18:28:19.144Z,31.08
2017-12-19T18:30:47.646Z,30.45
2017-12-19T18:33:15.678Z,34.55
2017-12-19T18:35:50.614Z,31.15
2017-12-19T18:38:18.629Z,33.22
2017-12-19T18:40:51.250Z,31.92
2017-12-19T18:43:19.282Z,29.73
2017-12-19T18:45:48.086Z,32.83
2017-12-19T18:48:16.133Z,31.17
2017-12-19T18:50:45.092Z,33.95
2017-12-19T18:53:13.157Z,32.70
2017-12-19T18:55:42.153Z,32.00
2017-12-19T18:58:10.277Z,33.78
2017-12-19T19:00:38.245Z,33.40
2017-12-19T19:03:07.034Z,32.50
2017-12-19T19:05:35.086Z,31.58
2017-12-19T19:08:03.890Z,28.42
2017-12-19T19:10:31.926Z,35.83
2017-12-19T19:12:59.949Z,30.95
2017-12-19T19:15:33.029Z,29.90
2017-12-19T19:18:01.141Z,32.65
2017-12-19T19:20:32.413Z,27.23
2017-12-19T19:23:00.449Z,31.17
2017-12-19T19:25:29.509Z,31.70
2017-12-19T19:27:57.497Z,27.80
2017-12-19T19:30:25.537Z,28.73
2017-12-19T19:32:53.577Z,29.40
2017-12-19T19:35:24.950Z,27.98
2017-12-19T19:37:58.745Z,28.33
2017-12-19T19:40:27.569Z,28.98
2017-12-19T19:42:56.485Z,26.95
2017-12-19T19:45:24.520Z,28.70
2017-12-19T19:47:52.573Z,26.98
2017-12-19T19:50:20.617Z,28.87
2017-12-19T19:52:48.645Z,30.10
2017-12-19T19:55:18.617Z,29.60
2017-12-19T19:57:47.408Z,30.62
2017-12-19T20:00:15.445Z,26.12
2017-12-19T20:02:43.487Z,31.02
2017-12-19T20:05:11.505Z,29.00
2017-12-19T20:07:39.537Z,31.33
2017-12-19T20:10:09.488Z,33.47
2017-12-19T20:12:37.505Z,29.40
2017-12-19T20:15:11.533Z,38.47
2017-12-19T20:17:39.545Z,30.17
2017-12-19T20:20:11.316Z,28.58
2017-12-19T20:22:41.081Z,34.58
2017-12-19T20:25:09.989Z,28.77
2017-12-19T20:27:38.017Z,30.55
2017-12-19T20:30:08.016Z,29.87
2017-12-19T20:32:36.959Z,29.87
2017-12-19T20:35:08.660Z,29.00
2017-12-19T20:37:39.337Z,32.03
2017-12-19T20:40:07.364Z,30.27
2017-12-19T20:42:37.361Z,29.67
2017-12-19T20:45:08.373Z,33.58
2017-12-19T20:47:36.420Z,31.02
2017-12-19T20:50:04.444Z,33.75
2017-12-19T20:52:34.123Z,36.17
2017-12-19T20:55:02.149Z,31.77
2017-12-19T20:57:30.196Z,38.40
2017-12-19T21:00:00.924Z,36.20
2017-12-19T21:02:29.736Z,30.88
2017-12-19T21:04:59.720Z,31.45
2017-12-19T21:07:29.544Z,30.17
2017-12-19T21:09:59.276Z,30.77
2017-12-19T21:12:29.036Z,27.62
2017-12-19T21:14:57.052Z,28.73
2017-12-19T21:17:26.033Z,30.75
2017-12-19T21:19:54.092Z,30.00
2017-12-19T21:22:23.895Z,27.27
2017-12-19T21:24:52.695Z,31.80
2017-12-19T21:27:23.524Z,32.25
2017-12-19T21:29:52.304Z,32.38
2017-12-19T21:32:23.044Z,33.78
2017-12-19T21:34:51.826Z,32.75
2017-12-19T21:37:19.854Z,29.65
2017-12-19T21:39:48.916Z,31.55
2017-12-19T21:42:17.708Z,30.70
2017-12-19T21:44:46.624Z,28.65
2017-12-19T21:47:15.644Z,31.25
2017-12-19T21:49:45.636Z,30.45
2017-12-19T21:52:13.661Z,27.50
2017-12-19T21:54:43.653Z,28.87
2017-12-19T21:57:12.484Z,26.83
2017-12-19T21:59:44.208Z,29.42
2017-12-19T22:02:12.984Z,29.17
2017-12-19T22:04:41.964Z,31.70
2017-12-19T22:07:10.875Z,31.00
2017-12-19T22:09:43.228Z,28.45
2017-12-19T22:12:11.260Z,29.92
2017-12-19T22:14:39.280Z,29.40
2017-12-19T22:17:12.252Z,29.85
2017-12-19T22:19:42.276Z,31.80
2017-12-19T22:22:11.184Z,32.70
2017-12-19T22:24:40.555Z,30.02
2017-12-19T22:27:08.571Z,31.83
2017-12-19T22:29:37.524Z,28.40
2017-12-19T22:32:10.671Z,29.35
2017-12-19T22:34:39.596Z,27.75
2017-12-19T22:37:11.379Z,29.55
2017-12-19T22:39:40.166Z,27.95
2017-12-19T22:42:08.952Z,26.85
2017-12-19T22:44:37.744Z,28.77
2017-12-19T22:47:06.539Z,28.73
2017-12-19T22:49:35.344Z,26.95
2017-12-19T22:52:05.340Z,28.60
2017-12-19T22:54:35.115Z,29.00
2017-12-19T22:57:03.131Z,28.60
2017-12-19T22:59:31.920Z,28.77
2017-12-19T23:01:59.939Z,32.92
2017-12-19T23:04:27.967Z,28.05
2017-12-19T23:06:59.595Z,29.95
2017-12-19T23:09:32.252Z,29.02
2017-12-19T23:12:01.251Z,28.15
2017-12-19T23:14:30.231Z,25.83
2017-12-19T23:16:59.155Z,28.92
2017-12-19T23:19:29.859Z,28.10
2017-12-19T23:21:58.771Z,29.12
2017-12-19T23:24:27.555Z,27.87
2017-12-19T23:27:00.232Z,27.35
2017-12-19T23:29:29.008Z,28.25
2017-12-19T23:31:57.023Z,31.25
2017-12-19T23:34:25.059Z,28.05
2017-12-19T23:36:54.028Z,30.60
2017-12-19T23:39:22.943Z,27.27
2017-12-19T23:41:51.767Z,32.65
2017-12-19T23:44:20.679Z,29.98
2017-12-19T23:46:50.423Z,27.90
2017-12-19T23:49:20.424Z,27.23
2017-12-19T23:51:48.436Z,27.20
2017-12-19T23:54:25.187Z,27.23
2017-12-19T23:56:57.215Z,27.17
2017-12-19T23:59:26.257Z,24.55
